Terminal Aerodrome Forecast
Issued by NWS Wilmington, OH

Current Version | Previous Version | Text Only | Print | Product List | Glossary Off
Versions: 1 2 3 4 5 6 7 8 9 10 11 12 13 14 15 16 17 18 19 20 21 22 23

000
FTUS41 KILN 291743
TAFCVG
TAF
KCVG 291743Z 2918/3024 21010KT P6SM VCTS BKN040CB
     FM300000 18004KT P6SM SCT040 BKN150
     FM301400 20008KT P6SM BKN040
     FM301800 20008KT P6SM VCSH BKN040=

USA.gov is the U.S. government's official web portal to all federal, state and local government web resources and services.